sensor_id;sensor_type;location;lat;lon;timestamp;pressure;altitude;pressure_sealevel;temperature;humidity
21826;BME280;11075;47.944;11.776;2023-02-16T00:00:43;95744.19;;;2.62;25.20
21826;BME280;11075;47.944;11.776;2023-02-16T00:03:20;95752.38;;;3.63;23.78
21826;BME280;11075;47.944;11.776;2023-02-16T00:05:49;95746.41;;;2.18;25.93
21826;BME280;11075;47.944;11.776;2023-02-16T00:08:16;95742.31;;;2.57;25.46
21826;BME280;11075;47.944;11.776;2023-02-16T00:10:44;95736.94;;;3.45;23.89
21826;BME280;11075;47.944;11.776;2023-02-16T00:13:31;95727.06;;;1.16;27.09
21826;BME280;11075;47.944;11.776;2023-02-16T00:16:19;95723.00;;;2.14;25.83
21826;BME280;11075;47.944;11.776;2023-02-16T00:18:47;95721.91;;;2.68;24.69
21826;BME280;11075;47.944;11.776;2023-02-16T00:21:14;95728.41;;;3.53;23.67
21826;BME280;11075;47.944;11.776;2023-02-16T00:23:41;95730.75;;;2.99;24.18
21826;BME280;11075;47.944;11.776;2023-02-16T00:26:19;95735.03;;;3.15;24.19
21826;BME280;11075;47.944;11.776;2023-02-16T00:28:52;95734.50;;;3.03;24.38
21826;BME280;11075;47.944;11.776;2023-02-16T00:31:22;95740.38;;;3.96;23.05
21826;BME280;11075;47.944;11.776;2023-02-16T00:33:53;95738.53;;;3.61;23.42
21826;BME280;11075;47.944;11.776;2023-02-16T00:36:20;95743.94;;;4.61;22.27
21826;BME280;11075;47.944;11.776;2023-02-16T00:38:48;95750.50;;;4.10;22.57
21826;BME280;11075;47.944;11.776;2023-02-16T00:41:18;95759.31;;;4.85;21.67
21826;BME280;11075;47.944;11.776;2023-02-16T00:44:13;95730.66;;;1.64;26.24
21826;BME280;11075;47.944;11.776;2023-02-16T00:46:43;95739.34;;;3.87;23.06
21826;BME280;11075;47.944;11.776;2023-02-16T00:49:15;95740.34;;;4.12;23.20
21826;BME280;11075;47.944;11.776;2023-02-16T00:51:43;95744.84;;;4.26;23.30
21826;BME280;11075;47.944;11.776;2023-02-16T00:54:10;95745.47;;;3.52;23.10
21826;BME280;11075;47.944;11.776;2023-02-16T00:56:38;95703.19;;;0.89;27.77
21826;BME280;11075;47.944;11.776;2023-02-16T00:59:07;95693.13;;;0.20;29.11
21826;BME280;11075;47.944;11.776;2023-02-16T01:01:37;95691.72;;;0.35;28.34
21826;BME280;11075;47.944;11.776;2023-02-16T01:04:06;95676.72;;;-0.20;29.28
21826;BME280;11075;47.944;11.776;2023-02-16T01:06:34;95669.41;;;-1.47;30.98
21826;BME280;11075;47.944;11.776;2023-02-16T01:09:19;95675.38;;;1.61;26.80
21826;BME280;11075;47.944;11.776;2023-02-16T01:12:10;95697.72;;;3.91;22.99
21826;BME280;11075;47.944;11.776;2023-02-16T01:14:39;95704.16;;;3.39;23.78
21826;BME280;11075;47.944;11.776;2023-02-16T01:17:06;95689.16;;;2.00;25.89
21826;BME280;11075;47.944;11.776;2023-02-16T01:19:33;95682.28;;;0.44;27.33
21826;BME280;11075;47.944;11.776;2023-02-16T01:21:59;95664.53;;;-0.21;28.73
21826;BME280;11075;47.944;11.776;2023-02-16T01:24:26;95668.00;;;2.25;25.71
21826;BME280;11075;47.944;11.776;2023-02-16T01:26:54;95669.88;;;2.35;25.22
21826;BME280;11075;47.944;11.776;2023-02-16T01:29:21;95682.84;;;3.39;23.87
21826;BME280;11075;47.944;11.776;2023-02-16T01:31:48;95672.31;;;2.41;24.81
21826;BME280;11075;47.944;11.776;2023-02-16T01:34:16;95683.38;;;3.67;22.95
21826;BME280;11075;47.944;11.776;2023-02-16T01:36:45;95682.81;;;2.78;23.83
21826;BME280;11075;47.944;11.776;2023-02-16T01:39:17;95673.47;;;2.03;25.06
21826;BME280;11075;47.944;11.776;2023-02-16T01:42:09;95658.03;;;1.16;26.86
21826;BME280;11075;47.944;11.776;2023-02-16T01:44:57;95649.16;;;1.37;26.83
21826;BME280;11075;47.944;11.776;2023-02-16T01:49:54;95661.28;;;3.10;24.74
21826;BME280;11075;47.944;11.776;2023-02-16T01:52:29;95654.06;;;3.06;24.32
21826;BME280;11075;47.944;11.776;2023-02-16T01:55:35;95654.00;;;1.45;26.28
21826;BME280;11075;47.944;11.776;2023-02-16T02:03:29;95643.50;;;2.23;25.33
21826;BME280;11075;47.944;11.776;2023-02-16T02:06:18;95655.84;;;1.87;25.03
21826;BME280;11075;47.944;11.776;2023-02-16T02:08:59;95651.59;;;2.64;24.43
21826;BME280;11075;47.944;11.776;2023-02-16T02:11:49;95655.13;;;3.35;23.39
21826;BME280;11075;47.944;11.776;2023-02-16T02:14:30;95662.31;;;3.70;22.94
21826;BME280;11075;47.944;11.776;2023-02-16T02:17:02;95674.03;;;4.54;21.78
21826;BME280;11075;47.944;11.776;2023-02-16T02:19:53;95661.53;;;2.94;23.83
21826;BME280;11075;47.944;11.776;2023-02-16T02:28:30;95660.16;;;3.62;23.09
21826;BME280;11075;47.944;11.776;2023-02-16T02:31:14;95679.97;;;4.36;22.06
21826;BME280;11075;47.944;11.776;2023-02-16T02:34:09;95679.31;;;4.59;21.80
21826;BME280;11075;47.944;11.776;2023-02-16T02:39:33;95664.47;;;3.13;23.86
21826;BME280;11075;47.944;11.776;2023-02-16T02:44:57;95658.31;;;3.58;23.50
21826;BME280;11075;47.944;11.776;2023-02-16T02:47:46;95674.53;;;3.92;22.45
21826;BME280;11075;47.944;11.776;2023-02-16T02:50:49;95684.59;;;4.10;22.83
21826;BME280;11075;47.944;11.776;2023-02-16T02:53:51;95685.50;;;3.50;23.03
21826;BME280;11075;47.944;11.776;2023-02-16T02:56:56;95695.91;;;3.21;23.55
21826;BME280;11075;47.944;11.776;2023-02-16T03:00:07;95692.41;;;3.56;22.60
21826;BME280;11075;47.944;11.776;2023-02-16T03:03:06;95698.28;;;3.37;23.25
21826;BME280;11075;47.944;11.776;2023-02-16T03:05:37;95678.41;;;2.37;24.38
21826;BME280;11075;47.944;11.776;2023-02-16T03:08:09;95684.06;;;1.19;25.90
21826;BME280;11075;47.944;11.776;2023-02-16T03:10:44;95679.84;;;2.02;25.10
21826;BME280;11075;47.944;11.776;2023-02-16T03:13:38;95685.13;;;1.18;26.05
21826;BME280;11075;47.944;11.776;2023-02-16T03:16:28;95670.88;;;0.21;27.83
21826;BME280;11075;47.944;11.776;2023-02-16T03:18:57;95686.84;;;3.06;23.48
21826;BME280;11075;47.944;11.776;2023-02-16T03:21:43;95688.41;;;2.97;23.36
21826;BME280;11075;47.944;11.776;2023-02-16T03:24:32;95662.53;;;0.35;27.33
21826;BME280;11075;47.944;11.776;2023-02-16T03:27:21;95670.06;;;-0.01;26.83
21826;BME280;11075;47.944;11.776;2023-02-16T03:30:09;95652.03;;;-1.43;29.29
21826;BME280;11075;47.944;11.776;2023-02-16T03:32:37;95628.81;;;-1.69;31.14
21826;BME280;11075;47.944;11.776;2023-02-16T03:35:05;95645.97;;;-0.21;27.97
21826;BME280;11075;47.944;11.776;2023-02-16T03:37:32;95651.16;;;-0.10;27.44
21826;BME280;11075;47.944;11.776;2023-02-16T03:40:00;95646.41;;;0.14;27.52
21826;BME280;11075;47.944;11.776;2023-02-16T03:42:49;95676.50;;;1.70;24.85
21826;BME280;11075;47.944;11.776;2023-02-16T03:45:18;95690.03;;;3.34;23.03
21826;BME280;11075;47.944;11.776;2023-02-16T03:47:45;95691.56;;;2.06;24.12
21826;BME280;11075;47.944;11.776;2023-02-16T03:50:12;95693.47;;;2.16;24.31
21826;BME280;11075;47.944;11.776;2023-02-16T03:52:40;95674.44;;;-0.50;28.35
21826;BME280;11075;47.944;11.776;2023-02-16T03:55:07;95668.44;;;-0.79;28.31
21826;BME280;11075;47.944;11.776;2023-02-16T03:57:34;95661.13;;;-0.17;27.69
21826;BME280;11075;47.944;11.776;2023-02-16T04:00:01;95661.41;;;-0.73;28.55
21826;BME280;11075;47.944;11.776;2023-02-16T04:02:38;95660.03;;;-1.38;29.31
21826;BME280;11075;47.944;11.776;2023-02-16T04:05:05;95658.44;;;-1.39;29.12
21826;BME280;11075;47.944;11.776;2023-02-16T04:07:32;95673.66;;;0.32;26.76
21826;BME280;11075;47.944;11.776;2023-02-16T04:09:59;95677.38;;;1.48;25.21
21826;BME280;11075;47.944;11.776;2023-02-16T04:12:26;95675.34;;;-0.78;27.82
21826;BME280;11075;47.944;11.776;2023-02-16T04:15:10;95671.41;;;0.67;26.43
21826;BME280;11075;47.944;11.776;2023-02-16T04:17:37;95666.13;;;-0.20;27.39
21826;BME280;11075;47.944;11.776;2023-02-16T04:20:05;95675.94;;;0.45;26.20
21826;BME280;11075;47.944;11.776;2023-02-16T04:22:32;95674.25;;;0.61;26.30
21826;BME280;11075;47.944;11.776;2023-02-16T04:24:59;95647.56;;;-1.26;30.08
21826;BME280;11075;47.944;11.776;2023-02-16T04:27:27;95651.91;;;0.08;27.50
21826;BME280;11075;47.944;11.776;2023-02-16T04:29:53;95689.53;;;2.24;24.71
21826;BME280;11075;47.944;11.776;2023-02-16T04:32:21;95692.81;;;2.46;24.07
21826;BME280;11075;47.944;11.776;2023-02-16T04:34:48;95713.47;;;3.42;22.67
21826;BME280;11075;47.944;11.776;2023-02-16T04:37:14;95707.88;;;1.41;24.97
21826;BME280;11075;47.944;11.776;2023-02-16T04:39:42;95712.34;;;2.82;23.11
21826;BME280;11075;47.944;11.776;2023-02-16T04:42:08;95706.66;;;1.54;25.02
21826;BME280;11075;47.944;11.776;2023-02-16T04:44:36;95703.53;;;0.98;25.97
21826;BME280;11075;47.944;11.776;2023-02-16T04:47:03;95715.84;;;1.41;25.12
21826;BME280;11075;47.944;11.776;2023-02-16T04:49:29;95694.41;;;0.40;26.79
21826;BME280;11075;47.944;11.776;2023-02-16T04:51:56;95698.47;;;2.02;24.47
21826;BME280;11075;47.944;11.776;2023-02-16T04:54:23;95701.44;;;2.11;24.38
21826;BME280;11075;47.944;11.776;2023-02-16T04:56:50;95707.34;;;1.76;24.35
21826;BME280;11075;47.944;11.776;2023-02-16T04:59:17;95707.94;;;2.40;23.91
21826;BME280;11075;47.944;11.776;2023-02-16T05:01:43;95705.41;;;1.29;25.10
21826;BME280;11075;47.944;11.776;2023-02-16T05:04:11;95704.44;;;1.77;24.65
21826;BME280;11075;47.944;11.776;2023-02-16T05:06:38;95687.84;;;-0.90;28.36
21826;BME280;11075;47.944;11.776;2023-02-16T05:09:05;95673.84;;;-1.19;29.50
21826;BME280;11075;47.944;11.776;2023-02-16T05:11:32;95669.28;;;-1.81;30.01
21826;BME280;11075;47.944;11.776;2023-02-16T05:14:26;95670.63;;;-1.38;29.11
21826;BME280;11075;47.944;11.776;2023-02-16T05:17:16;95683.56;;;0.63;26.12
21826;BME280;11075;47.944;11.776;2023-02-16T05:19:45;95670.81;;;-0.05;27.56
21826;BME280;11075;47.944;11.776;2023-02-16T05:22:13;95660.09;;;-0.16;28.79
21826;BME280;11075;47.944;11.776;2023-02-16T05:24:41;95672.78;;;0.26;27.42
21826;BME280;11075;47.944;11.776;2023-02-16T05:27:12;95658.78;;;-0.35;28.31
21826;BME280;11075;47.944;11.776;2023-02-16T05:29:39;95662.56;;;-1.60;30.25
21826;BME280;11075;47.944;11.776;2023-02-16T05:32:07;95678.38;;;-0.14;27.71
21826;BME280;11075;47.944;11.776;2023-02-16T05:34:33;95681.81;;;0.74;26.72
21826;BME280;11075;47.944;11.776;2023-02-16T05:37:01;95682.91;;;0.51;26.96
21826;BME280;11075;47.944;11.776;2023-02-16T05:39:27;95675.13;;;0.22;27.54
21826;BME280;11075;47.944;11.776;2023-02-16T05:41:54;95676.72;;;0.23;27.55
21826;BME280;11075;47.944;11.776;2023-02-16T05:44:22;95672.84;;;-1.75;30.35
21826;BME280;11075;47.944;11.776;2023-02-16T05:46:49;95675.19;;;-0.55;28.86
21826;BME280;11075;47.944;11.776;2023-02-16T05:49:16;95685.72;;;0.93;27.14
21826;BME280;11075;47.944;11.776;2023-02-16T05:51:44;95672.31;;;-0.31;29.38
21826;BME280;11075;47.944;11.776;2023-02-16T05:54:12;95674.13;;;-1.04;30.09
21826;BME280;11075;47.944;11.776;2023-02-16T05:56:47;95680.81;;;0.80;27.72
21826;BME280;11075;47.944;11.776;2023-02-16T05:59:15;95684.91;;;0.66;27.68
21826;BME280;11075;47.944;11.776;2023-02-16T06:01:43;95692.84;;;1.19;26.82
21826;BME280;11075;47.944;11.776;2023-02-16T06:04:16;95686.84;;;1.34;26.36
21826;BME280;11075;47.944;11.776;2023-02-16T06:06:44;95694.34;;;-0.09;28.27
21826;BME280;11075;47.944;11.776;2023-02-16T06:09:11;95692.81;;;0.39;27.90
21826;BME280;11075;47.944;11.776;2023-02-16T06:11:38;95686.41;;;-0.64;29.60
21826;BME280;11075;47.944;11.776;2023-02-16T06:14:08;95692.94;;;-0.17;28.92
21826;BME280;11075;47.944;11.776;2023-02-16T06:16:37;95703.41;;;1.14;27.28
21826;BME280;11075;47.944;11.776;2023-02-16T06:19:05;95711.34;;;1.78;26.35
21826;BME280;11075;47.944;11.776;2023-02-16T06:21:32;95705.19;;;-0.49;29.10
21826;BME280;11075;47.944;11.776;2023-02-16T06:23:59;95691.25;;;-1.07;30.69
21826;BME280;11075;47.944;11.776;2023-02-16T06:26:27;95710.38;;;0.67;27.50
21826;BME280;11075;47.944;11.776;2023-02-16T06:28:54;95707.28;;;1.02;27.32
21826;BME280;11075;47.944;11.776;2023-02-16T06:31:22;95702.41;;;-0.21;28.98
21826;BME280;11075;47.944;11.776;2023-02-16T06:33:51;95701.66;;;-0.55;29.22
21826;BME280;11075;47.944;11.776;2023-02-16T06:36:19;95699.13;;;-0.95;29.97
21826;BME280;11075;47.944;11.776;2023-02-16T06:38:46;95705.63;;;0.96;27.76
21826;BME280;11075;47.944;11.776;2023-02-16T06:41:14;95719.41;;;1.57;26.59
21826;BME280;11075;47.944;11.776;2023-02-16T06:44:01;95740.38;;;2.32;25.17
21826;BME280;11075;47.944;11.776;2023-02-16T06:46:28;95735.19;;;1.36;26.86
21826;BME280;11075;47.944;11.776;2023-02-16T06:48:55;95730.38;;;2.02;26.35
21826;BME280;11075;47.944;11.776;2023-02-16T06:51:22;95741.53;;;2.04;26.02
21826;BME280;11075;47.944;11.776;2023-02-16T06:53:49;95747.84;;;3.38;24.42
21826;BME280;11075;47.944;11.776;2023-02-16T06:56:16;95741.38;;;2.84;25.54
21826;BME280;11075;47.944;11.776;2023-02-16T06:58:43;95745.38;;;2.24;26.12
21826;BME280;11075;47.944;11.776;2023-02-16T07:01:10;95718.81;;;-0.57;29.46
21826;BME280;11075;47.944;11.776;2023-02-16T07:03:37;95727.38;;;1.89;26.63
21826;BME280;11075;47.944;11.776;2023-02-16T07:06:05;95718.16;;;0.73;28.62
21826;BME280;11075;47.944;11.776;2023-02-16T07:08:32;95726.78;;;3.01;25.84
21826;BME280;11075;47.944;11.776;2023-02-16T07:11:01;95736.88;;;2.89;25.77
21826;BME280;11075;47.944;11.776;2023-02-16T07:13:28;95749.16;;;4.07;24.54
21826;BME280;11075;47.944;11.776;2023-02-16T07:15:55;95749.41;;;4.16;24.27
21826;BME280;11075;47.944;11.776;2023-02-16T07:18:22;95744.94;;;3.81;25.41
21826;BME280;11075;47.944;11.776;2023-02-16T07:20:49;95745.72;;;3.51;26.21
21826;BME280;11075;47.944;11.776;2023-02-16T07:23:16;95743.94;;;2.58;27.16
21826;BME280;11075;47.944;11.776;2023-02-16T07:25:43;95743.25;;;0.88;28.99
21826;BME280;11075;47.944;11.776;2023-02-16T07:28:10;95746.25;;;4.83;24.86
21826;BME280;11075;47.944;11.776;2023-02-16T07:30:37;95745.22;;;3.74;26.19
21826;BME280;11075;47.944;11.776;2023-02-16T07:33:04;95753.56;;;5.12;25.06
21826;BME280;11075;47.944;11.776;2023-02-16T07:35:35;95767.50;;;6.63;23.19
21826;BME280;11075;47.944;11.776;2023-02-16T07:38:03;95742.00;;;3.41;27.26
21826;BME280;11075;47.944;11.776;2023-02-16T07:40:30;95755.50;;;5.01;25.59
21826;BME280;11075;47.944;11.776;2023-02-16T07:43:02;95760.47;;;4.68;25.28
21826;BME280;11075;47.944;11.776;2023-02-16T07:45:30;95775.81;;;6.38;23.68
21826;BME280;11075;47.944;11.776;2023-02-16T07:48:01;95774.78;;;6.82;23.74
21826;BME280;11075;47.944;11.776;2023-02-16T07:50:28;95762.13;;;5.09;25.82
21826;BME280;11075;47.944;11.776;2023-02-16T07:52:54;95776.41;;;6.06;24.53
21826;BME280;11075;47.944;11.776;2023-02-16T07:55:21;95774.38;;;8.01;22.92
21826;BME280;11075;47.944;11.776;2023-02-16T07:57:48;95778.78;;;8.98;21.94
21826;BME280;11075;47.944;11.776;2023-02-16T08:00:20;95798.09;;;10.39;20.44
21826;BME280;11075;47.944;11.776;2023-02-16T08:02:47;95779.53;;;10.07;21.69
21826;BME280;11075;47.944;11.776;2023-02-16T08:05:15;95801.50;;;9.42;21.67
21826;BME280;11075;47.944;11.776;2023-02-16T08:07:42;95795.19;;;9.10;22.14
21826;BME280;11075;47.944;11.776;2023-02-16T08:10:12;95783.75;;;9.77;22.04
21826;BME280;11075;47.944;11.776;2023-02-16T08:12:39;95801.53;;;12.49;19.49
21826;BME280;11075;47.944;11.776;2023-02-16T08:15:07;95802.56;;;10.84;21.02
21826;BME280;11075;47.944;11.776;2023-02-16T08:17:35;95773.69;;;8.28;23.75
21826;BME280;11075;47.944;11.776;2023-02-16T08:20:04;95790.03;;;8.86;22.59
21826;BME280;11075;47.944;11.776;2023-02-16T08:22:31;95791.41;;;11.16;21.29
21826;BME280;11075;47.944;11.776;2023-02-16T08:24:58;95799.03;;;9.68;21.64
21826;BME280;11075;47.944;11.776;2023-02-16T08:27:25;95786.00;;;9.61;22.66
21826;BME280;11075;47.944;11.776;2023-02-16T08:29:52;95773.78;;;10.00;22.42
21826;BME280;11075;47.944;11.776;2023-02-16T08:32:20;95804.16;;;12.11;20.38
21826;BME280;11075;47.944;11.776;2023-02-16T08:34:46;95822.97;;;13.80;18.50
21826;BME280;11075;47.944;11.776;2023-02-16T08:37:13;95819.22;;;14.26;18.26
21826;BME280;11075;47.944;11.776;2023-02-16T08:39:40;95822.88;;;12.80;19.44
21826;BME280;11075;47.944;11.776;2023-02-16T08:42:10;95820.66;;;14.57;18.99
21826;BME280;11075;47.944;11.776;2023-02-16T08:44:38;95818.16;;;11.69;21.65
21826;BME280;11075;47.944;11.776;2023-02-16T08:47:05;95808.72;;;9.69;21.93
21826;BME280;11075;47.944;11.776;2023-02-16T08:49:32;95805.59;;;11.56;20.82
21826;BME280;11075;47.944;11.776;2023-02-16T08:51:59;95816.28;;;13.07;19.86
21826;BME280;11075;47.944;11.776;2023-02-16T08:54:28;95838.78;;;12.08;18.23
21826;BME280;11075;47.944;11.776;2023-02-16T08:56:57;95822.16;;;10.98;21.29
21826;BME280;11075;47.944;11.776;2023-02-16T08:59:25;95834.72;;;10.40;20.13
21826;BME280;11075;47.944;11.776;2023-02-16T09:01:55;95841.81;;;9.92;20.43
21826;BME280;11075;47.944;11.776;2023-02-16T09:04:22;95826.06;;;12.18;20.59
21826;BME280;11075;47.944;11.776;2023-02-16T09:06:51;95850.09;;;12.75;17.90
21826;BME280;11075;47.944;11.776;2023-02-16T09:09:19;95850.19;;;11.54;19.21
21826;BME280;11075;47.944;11.776;2023-02-16T09:11:46;95827.53;;;13.38;19.99
21826;BME280;11075;47.944;11.776;2023-02-16T09:14:17;95838.13;;;14.92;17.75
21826;BME280;11075;47.944;11.776;2023-02-16T09:16:44;95847.19;;;15.21;17.36
21826;BME280;11075;47.944;11.776;2023-02-16T09:19:13;95849.31;;;14.91;17.74
21826;BME280;11075;47.944;11.776;2023-02-16T09:21:41;95888.91;;;15.65;16.44
21826;BME280;11075;47.944;11.776;2023-02-16T09:24:09;95883.94;;;16.91;14.83
21826;BME280;11075;47.944;11.776;2023-02-16T09:26:37;95914.63;;;16.60;14.31
21826;BME280;11075;47.944;11.776;2023-02-16T09:29:10;95924.72;;;16.60;13.95
21826;BME280;11075;47.944;11.776;2023-02-16T09:31:38;95927.94;;;17.09;13.83
21826;BME280;11075;47.944;11.776;2023-02-16T09:34:13;95908.53;;;13.14;17.30
21826;BME280;11075;47.944;11.776;2023-02-16T09:36:42;95925.78;;;16.43;13.99
21826;BME280;11075;47.944;11.776;2023-02-16T09:39:09;95905.88;;;14.68;15.73
21826;BME280;11075;47.944;11.776;2023-02-16T09:46:54;95925.91;;;15.09;15.44
21826;BME280;11075;47.944;11.776;2023-02-16T09:49:36;95929.81;;;16.61;13.90
21826;BME280;11075;47.944;11.776;2023-02-16T09:54:41;95914.91;;;13.77;16.07
21826;BME280;11075;47.944;11.776;2023-02-16T10:05:32;95922.47;;;12.86;16.54
21826;BME280;11075;47.944;11.776;2023-02-16T10:08:11;95919.47;;;12.70;16.49
21826;BME280;11075;47.944;11.776;2023-02-16T10:11:16;95911.31;;;15.74;15.59
21826;BME280;11075;47.944;11.776;2023-02-16T10:13:42;95920.47;;;13.13;15.95
21826;BME280;11075;47.944;11.776;2023-02-16T10:16:20;95920.19;;;16.24;14.69
21826;BME280;11075;47.944;11.776;2023-02-16T10:18:51;95929.84;;;15.97;14.49
21826;BME280;11075;47.944;11.776;2023-02-16T10:21:25;95912.63;;;14.83;16.33
21826;BME280;11075;47.944;11.776;2023-02-16T10:24:03;95915.28;;;15.40;14.85
21826;BME280;11075;47.944;11.776;2023-02-16T10:26:35;95921.59;;;15.20;14.91
21826;BME280;11075;47.944;11.776;2023-02-16T10:29:12;95940.19;;;17.31;13.61
21826;BME280;11075;47.944;11.776;2023-02-16T10:37:32;95929.41;;;15.09;14.63
21826;BME280;11075;47.944;11.776;2023-02-16T10:40:25;95924.97;;;18.89;13.47
21826;BME280;11075;47.944;11.776;2023-02-16T10:43:03;95931.06;;;17.39;13.85
21826;BME280;11075;47.944;11.776;2023-02-16T10:45:50;95933.16;;;16.70;13.81
21826;BME280;11075;47.944;11.776;2023-02-16T10:48:20;95937.41;;;18.48;12.91
21826;BME280;11075;47.944;11.776;2023-02-16T10:51:01;95918.38;;;15.51;15.03
21826;BME280;11075;47.944;11.776;2023-02-16T10:53:41;95923.06;;;16.43;14.19
21826;BME280;11075;47.944;11.776;2023-02-16T10:59:05;95940.94;;;19.10;12.15
21826;BME280;11075;47.944;11.776;2023-02-16T11:01:39;95928.16;;;17.32;13.49
21826;BME280;11075;47.944;11.776;2023-02-16T11:04:29;95930.34;;;17.26;13.58
21826;BME280;11075;47.944;11.776;2023-02-16T11:09:34;95927.16;;;16.93;13.63
21826;BME280;11075;47.944;11.776;2023-02-16T11:12:19;95933.84;;;17.74;12.74
21826;BME280;11075;47.944;11.776;2023-02-16T11:14:53;95927.94;;;15.97;13.50
21826;BME280;11075;47.944;11.776;2023-02-16T11:17:21;95926.13;;;15.28;13.21
21826;BME280;11075;47.944;11.776;2023-02-16T11:19:58;95901.50;;;16.50;14.45
21826;BME280;11075;47.944;11.776;2023-02-16T11:25:22;95909.16;;;18.02;13.03
21826;BME280;11075;47.944;11.776;2023-02-16T11:27:50;95911.88;;;16.88;13.00
21826;BME280;11075;47.944;11.776;2023-02-16T11:30:27;95916.25;;;14.99;13.60
21826;BME280;11075;47.944;11.776;2023-02-16T11:33:00;95903.16;;;20.14;12.16
21826;BME280;11075;47.944;11.776;2023-02-16T11:35:30;95910.63;;;17.64;12.55
21826;BME280;11075;47.944;11.776;2023-02-16T11:37:58;95911.53;;;18.03;12.35
21826;BME280;11075;47.944;11.776;2023-02-16T11:40:28;95903.28;;;13.76;15.17
21826;BME280;11075;47.944;11.776;2023-02-16T11:42:57;95899.31;;;15.02;14.30
21826;BME280;11075;47.944;11.776;2023-02-16T11:48:10;95882.81;;;13.66;15.34
21826;BME280;11075;47.944;11.776;2023-02-16T11:50:40;95886.53;;;14.57;14.75
21826;BME280;11075;47.944;11.776;2023-02-16T11:53:29;95884.03;;;15.71;14.56
21826;BME280;11075;47.944;11.776;2023-02-16T11:56:24;95863.13;;;15.22;15.16
21826;BME280;11075;47.944;11.776;2023-02-16T11:59:18;95865.06;;;12.72;15.75
21826;BME280;11075;47.944;11.776;2023-02-16T12:07:46;95834.91;;;17.89;14.07
21826;BME280;11075;47.944;11.776;2023-02-16T12:10:21;95858.38;;;18.74;12.87
21826;BME280;11075;47.944;11.776;2023-02-16T12:13:21;95855.53;;;13.42;15.89
21826;BME280;11075;47.944;11.776;2023-02-16T12:16:05;95844.59;;;16.01;14.89
21826;BME280;11075;47.944;11.776;2023-02-16T12:18:50;95846.25;;;15.41;14.31
21826;BME280;11075;47.944;11.776;2023-02-16T12:26:57;95839.63;;;19.42;13.10
21826;BME280;11075;47.944;11.776;2023-02-16T12:29:36;95845.16;;;17.61;13.45
21826;BME280;11075;47.944;11.776;2023-02-16T12:35:20;95837.72;;;19.72;13.33
21826;BME280;11075;47.944;11.776;2023-02-16T12:38:15;95835.84;;;15.68;14.78
21826;BME280;11075;47.944;11.776;2023-02-16T12:46:00;95831.81;;;15.89;14.15
21826;BME280;11075;47.944;11.776;2023-02-16T12:48:50;95815.25;;;18.38;12.93
21826;BME280;11075;47.944;11.776;2023-02-16T12:51:21;95836.34;;;16.69;13.14
21826;BME280;11075;47.944;11.776;2023-02-16T12:53:59;95814.66;;;16.89;13.31
21826;BME280;11075;47.944;11.776;2023-02-16T12:56:35;95826.19;;;16.82;13.70
21826;BME280;11075;47.944;11.776;2023-02-16T13:02:00;95804.81;;;17.31;14.29
21826;BME280;11075;47.944;11.776;2023-02-16T13:04:49;95802.25;;;15.60;14.34
21826;BME280;11075;47.944;11.776;2023-02-16T13:07:41;95799.81;;;17.33;13.75
21826;BME280;11075;47.944;11.776;2023-02-16T13:15:34;95798.88;;;17.99;13.13
21826;BME280;11075;47.944;11.776;2023-02-16T13:18:24;95791.50;;;16.95;14.76
21826;BME280;11075;47.944;11.776;2023-02-16T13:20:57;95795.25;;;17.06;14.10
21826;BME280;11075;47.944;11.776;2023-02-16T13:26:41;95794.09;;;14.17;15.38
21826;BME280;11075;47.944;11.776;2023-02-16T13:29:33;95790.84;;;14.81;14.96
21826;BME280;11075;47.944;11.776;2023-02-16T13:32:19;95781.47;;;16.99;13.75
21826;BME280;11075;47.944;11.776;2023-02-16T13:40:13;95791.06;;;14.19;14.79
21826;BME280;11075;47.944;11.776;2023-02-16T13:45:37;95785.94;;;14.05;15.02
21826;BME280;11075;47.944;11.776;2023-02-16T13:48:26;95775.22;;;14.54;14.57
21826;BME280;11075;47.944;11.776;2023-02-16T13:51:10;95777.69;;;15.56;14.38
21826;BME280;11075;47.944;11.776;2023-02-16T13:53:41;95782.91;;;17.43;13.05
21826;BME280;11075;47.944;11.776;2023-02-16T13:56:13;95776.06;;;17.69;13.53
21826;BME280;11075;47.944;11.776;2023-02-16T13:58:40;95793.78;;;16.93;13.23
21826;BME280;11075;47.944;11.776;2023-02-16T14:01:35;95786.22;;;15.06;14.61
21826;BME280;11075;47.944;11.776;2023-02-16T14:04:11;95789.38;;;17.04;13.47
21826;BME280;11075;47.944;11.776;2023-02-16T14:06:40;95787.63;;;17.82;12.75
21826;BME280;11075;47.944;11.776;2023-02-16T14:14:45;95802.22;;;18.96;12.63
21826;BME280;11075;47.944;11.776;2023-02-16T14:33:44;95792.13;;;14.84;14.07
21826;BME280;11075;47.944;11.776;2023-02-16T14:36:14;95790.09;;;16.85;13.08
21826;BME280;11075;47.944;11.776;2023-02-16T14:38:44;95788.69;;;16.75;13.57
21826;BME280;11075;47.944;11.776;2023-02-16T14:52:24;95782.47;;;14.74;13.95
21826;BME280;11075;47.944;11.776;2023-02-16T14:55:14;95773.75;;;14.11;14.52
21826;BME280;11075;47.944;11.776;2023-02-16T15:01:02;95772.06;;;13.23;14.91
21826;BME280;11075;47.944;11.776;2023-02-16T15:03:22;95773.13;;;15.08;14.22
21826;BME280;11075;47.944;11.776;2023-02-16T15:05:58;95769.38;;;13.23;15.60
21826;BME280;11075;47.944;11.776;2023-02-16T15:08:28;95768.69;;;13.06;15.17
21826;BME280;11075;47.944;11.776;2023-02-16T15:11:15;95753.31;;;12.97;15.76
21826;BME280;11075;47.944;11.776;2023-02-16T15:13:46;95771.47;;;14.34;14.60
21826;BME280;11075;47.944;11.776;2023-02-16T15:16:17;95764.22;;;13.10;15.47
21826;BME280;11075;47.944;11.776;2023-02-16T15:18:49;95767.03;;;13.63;14.65
21826;BME280;11075;47.944;11.776;2023-02-16T15:21:23;95759.09;;;12.79;15.56
21826;BME280;11075;47.944;11.776;2023-02-16T15:23:58;95767.94;;;13.47;14.93
21826;BME280;11075;47.944;11.776;2023-02-16T15:26:33;95755.53;;;13.66;15.08
21826;BME280;11075;47.944;11.776;2023-02-16T15:29:23;95763.34;;;12.97;15.52
21826;BME280;11075;47.944;11.776;2023-02-16T15:31:52;95775.81;;;14.72;14.56
21826;BME280;11075;47.944;11.776;2023-02-16T15:34:32;95755.69;;;12.90;16.21